Time;durP1;ratioP1;P1;durP2;ratioP2;P2;SDS_P1;SDS_P2;PMS_P1;PMS_P2;Temp;Humidity;BMP_temperature;BMP_pressure;BME280_temperature;BME280_humidity;BME280_pressure;Samples;Min_cycle;Max_cycle;Signal;HPM_P1;HPM_P2
2023/12/19 00:01:02;;;;;;;72.70;31.98;;;7.70;99.90;;;;;;5075253;28;20120;-45
2023/12/19 00:03:28;;;;;;;61.33;30.70;;;8.30;99.90;;;;;;5075255;28;20075;-45
2023/12/19 00:05:54;;;;;;;66.00;30.25;;;8.30;99.90;;;;;;5075276;28;20499;-44
2023/12/19 00:08:19;;;;;;;59.00;27.88;;;7.20;99.90;;;;;;5073875;28;20506;-44
2023/12/19 00:10:45;;;;;;;59.30;27.33;;;8.40;99.90;;;;;;5075078;28;20032;-45
2023/12/19 00:13:11;;;;;;;56.42;28.40;;;8.40;99.90;;;;;;5074894;28;20046;-44
2023/12/19 00:15:37;;;;;;;56.53;27.48;;;7.90;99.90;;;;;;5075224;28;20102;-44
2023/12/19 00:18:03;;;;;;;56.55;27.58;;;7.70;99.90;;;;;;5073638;28;20484;-44
2023/12/19 00:20:29;;;;;;;55.17;27.10;;;8.50;99.90;;;;;;5075199;28;20036;-44
2023/12/19 00:22:54;;;;;;;55.20;26.60;;;7.30;99.90;;;;;;5074973;28;20036;-44
2023/12/19 00:25:23;;;;;;;53.83;26.70;;;8.40;99.90;;;;;;5074809;28;20048;-49
2023/12/19 00:27:49;;;;;;;53.05;26.30;;;7.80;99.90;;;;;;5074789;28;20401;-45
2023/12/19 00:30:15;;;;;;;58.88;27.98;;;8.50;99.90;;;;;;5074947;28;20048;-45
2023/12/19 00:32:41;;;;;;;50.33;25.05;;;8.60;99.90;;;;;;5074692;28;20512;-46
2023/12/19 00:35:08;;;;;;;50.97;25.15;;;7.60;99.90;;;;;;5074997;28;20067;-44
2023/12/19 00:37:34;;;;;;;53.40;26.00;;;8.50;99.90;;;;;;5074800;28;20404;-44
2023/12/19 00:40:00;;;;;;;55.13;24.77;;;8.50;99.90;;;;;;5074754;28;20048;-47
2023/12/19 00:42:25;;;;;;;53.30;25.55;;;7.30;99.90;;;;;;5074360;28;20056;-48
2023/12/19 00:44:51;;;;;;;48.75;24.50;;;8.50;99.90;;;;;;5074480;28;20091;-45
2023/12/19 00:47:17;;;;;;;54.55;25.48;;;7.60;99.90;;;;;;5074189;28;20068;-47
2023/12/19 00:49:43;;;;;;;52.50;26.50;;;8.20;99.90;;;;;;5074759;28;20048;-48
2023/12/19 00:52:08;;;;;;;53.65;26.55;;;7.40;99.90;;;;;;5074457;28;20037;-49
2023/12/19 00:54:35;;;;;;;55.45;26.10;;;8.50;99.90;;;;;;5074325;28;20467;-45
2023/12/19 00:57:00;;;;;;;54.05;25.75;;;8.40;99.90;;;;;;5074590;28;20040;-48
2023/12/19 00:59:26;;;;;;;55.97;27.27;;;7.30;99.90;;;;;;5074511;28;20042;-44
2023/12/19 01:01:52;;;;;;;50.25;24.38;;;7.50;99.90;;;;;;5074049;28;20052;-46
2023/12/19 01:04:19;;;;;;;50.60;26.63;;;7.30;99.90;;;;;;5074464;28;20044;-45
2023/12/19 01:06:45;;;;;;;56.22;26.05;;;7.40;99.90;;;;;;5074324;28;20111;-48
2023/12/19 01:09:11;;;;;;;55.72;28.45;;;7.30;99.90;;;;;;5074079;28;20549;-46
2023/12/19 01:11:36;;;;;;;53.72;26.85;;;8.10;99.90;;;;;;5074256;28;20357;-46
2023/12/19 01:14:02;;;;;;;57.10;25.67;;;8.30;99.90;;;;;;5074275;28;20115;-46
2023/12/19 01:16:28;;;;;;;49.97;26.13;;;7.70;99.90;;;;;;5073813;28;20048;-44
2023/12/19 01:18:55;;;;;;;49.97;25.75;;;7.30;99.90;;;;;;5073866;28;20049;-44
2023/12/19 01:21:20;;;;;;;53.90;26.98;;;8.20;99.90;;;;;;5073857;28;20044;-45
2023/12/19 01:23:46;;;;;;;55.45;26.08;;;8.40;99.90;;;;;;5073739;28;20553;-48
2023/12/19 01:26:12;;;;;;;52.50;25.23;;;7.30;99.90;;;;;;5073596;28;20044;-48
2023/12/19 01:28:39;;;;;;;51.03;25.13;;;8.40;99.90;;;;;;5073582;28;20039;-48
2023/12/19 01:31:04;;;;;;;47.97;23.25;;;7.70;99.90;;;;;;5073672;28;20072;-44
2023/12/19 01:33:30;;;;;;;46.20;23.55;;;8.20;99.90;;;;;;5073829;28;20137;-46
2023/12/19 01:35:56;;;;;;;53.60;23.42;;;7.70;99.90;;;;;;5073665;28;20177;-46
2023/12/19 01:38:21;;;;;;;47.53;23.00;;;7.20;99.90;;;;;;5073494;28;20393;-48
2023/12/19 01:40:47;;;;;;;47.15;22.25;;;7.60;99.90;;;;;;5073474;28;20040;-48
2023/12/19 01:43:20;;;;;;;45.67;22.27;;;7.40;99.90;;;;;;5073138;28;20078;-45
2023/12/19 01:45:47;;;;;;;41.53;22.80;;;7.80;99.90;;;;;;5073548;28;20033;-46
2023/12/19 01:48:14;;;;;;;42.05;21.67;;;8.40;99.90;;;;;;5073453;28;20028;-45
2023/12/19 01:50:40;;;;;;;41.22;21.45;;;7.30;99.90;;;;;;5072094;28;20129;-47
2023/12/19 01:53:06;;;;;;;42.88;21.42;;;7.40;99.90;;;;;;5072662;28;20194;-44
2023/12/19 01:55:32;;;;;;;40.17;19.65;;;8.30;99.90;;;;;;5073210;28;20040;-47
2023/12/19 01:57:59;;;;;;;41.88;21.95;;;7.70;99.90;;;;;;5072911;28;20046;-44
2023/12/19 02:00:25;;;;;;;42.85;19.65;;;8.40;99.90;;;;;;5071863;28;20052;-45
2023/12/19 02:02:51;;;;;;;35.75;18.80;;;8.40;99.90;;;;;;5071732;28;20041;-45
2023/12/19 02:05:17;;;;;;;40.20;20.17;;;7.80;99.90;;;;;;5073010;28;20044;-46
2023/12/19 02:07:43;;;;;;;36.30;20.05;;;7.50;99.90;;;;;;5073044;28;20090;-45
2023/12/19 02:10:10;;;;;;;33.47;18.75;;;8.40;99.90;;;;;;5072920;28;20454;-44
2023/12/19 02:12:37;;;;;;;37.28;18.00;;;7.60;99.90;;;;;;5072778;28;20040;-44
2023/12/19 02:15:04;;;;;;;33.28;18.13;;;7.70;99.90;;;;;;5072672;28;20037;-44
2023/12/19 02:17:29;;;;;;;32.88;17.98;;;7.40;99.90;;;;;;5072866;28;20048;-44
2023/12/19 02:19:55;;;;;;;39.22;19.55;;;7.80;99.90;;;;;;5071434;28;20056;-44
2023/12/19 02:22:21;;;;;;;32.72;18.05;;;8.40;99.90;;;;;;5072627;28;20047;-46
2023/12/19 02:24:47;;;;;;;33.15;16.42;;;8.40;99.90;;;;;;5072843;28;20037;-44
2023/12/19 02:27:14;;;;;;;32.08;17.20;;;7.30;99.90;;;;;;5072639;28;20112;-44
2023/12/19 02:29:40;;;;;;;34.92;17.77;;;8.20;99.90;;;;;;5072578;28;20036;-49
2023/12/19 02:32:05;;;;;;;31.85;17.77;;;7.30;99.90;;;;;;5072502;28;20110;-45
2023/12/19 02:34:31;;;;;;;32.55;17.98;;;7.90;99.90;;;;;;5072388;28;20402;-44
2023/12/19 02:36:57;;;;;;;32.38;18.60;;;7.50;99.90;;;;;;5072498;28;20059;-44
2023/12/19 02:39:23;;;;;;;35.55;17.70;;;8.20;99.90;;;;;;5072209;28;20394;-44
2023/12/19 02:41:49;;;;;;;33.95;17.48;;;7.40;99.90;;;;;;5072242;28;20049;-45
2023/12/19 02:44:14;;;;;;;36.38;18.95;;;8.40;99.90;;;;;;5072253;28;20123;-44
2023/12/19 02:46:40;;;;;;;33.28;17.35;;;7.50;99.90;;;;;;5072142;28;20041;-46
2023/12/19 02:49:06;;;;;;;32.13;17.98;;;7.50;99.90;;;;;;5072389;28;20045;-48
2023/12/19 02:51:32;;;;;;;33.63;17.83;;;8.40;99.90;;;;;;5072040;28;20043;-45
2023/12/19 02:53:58;;;;;;;32.58;17.08;;;7.30;99.90;;;;;;5072388;28;20047;-48
2023/12/19 02:56:24;;;;;;;31.38;16.90;;;7.30;99.90;;;;;;5070877;28;20048;-46
2023/12/19 02:58:50;;;;;;;33.85;18.30;;;7.40;99.90;;;;;;5070725;28;20079;-44
2023/12/19 03:01:16;;;;;;;34.08;17.33;;;7.50;99.90;;;;;;5071789;28;20045;-45
2023/12/19 03:03:43;;;;;;;32.85;16.48;;;7.40;99.90;;;;;;5072144;28;20036;-46
2023/12/19 03:06:09;;;;;;;31.85;16.98;;;7.90;99.90;;;;;;5070577;28;20120;-45
2023/12/19 03:08:35;;;;;;;32.70;17.05;;;7.80;99.90;;;;;;5072209;28;20037;-44
2023/12/19 03:11:01;;;;;;;32.83;17.42;;;7.70;99.90;;;;;;5071907;28;20056;-47
2023/12/19 03:13:27;;;;;;;33.95;17.33;;;7.40;99.90;;;;;;5071944;28;20047;-45
2023/12/19 03:15:53;;;;;;;33.00;18.02;;;7.60;99.90;;;;;;5072051;28;20037;-45
2023/12/19 03:18:24;;;;;;;31.08;16.58;;;7.60;99.90;;;;;;5071933;28;20169;-46
2023/12/19 03:20:51;;;;;;;35.40;18.73;;;8.00;99.90;;;;;;5072098;28;20093;-49
2023/12/19 03:23:21;;;;;;;30.88;17.65;;;7.20;99.90;;;;;;5071756;28;20069;-45
2023/12/19 03:25:47;;;;;;;32.90;17.02;;;8.30;99.90;;;;;;5072044;28;20139;-44
2023/12/19 03:28:13;;;;;;;29.30;16.52;;;7.40;99.90;;;;;;5071758;28;20169;-45
2023/12/19 03:30:39;;;;;;;31.20;17.83;;;7.50;99.90;;;;;;5072021;28;20547;-45
2023/12/19 03:33:05;;;;;;;30.85;15.63;;;8.20;99.90;;;;;;5072117;28;20052;-45
2023/12/19 03:35:30;;;;;;;31.50;16.90;;;7.40;99.90;;;;;;5071833;28;20400;-44
2023/12/19 03:37:56;;;;;;;27.00;15.80;;;7.20;99.90;;;;;;5071969;28;20059;-44
2023/12/19 03:40:22;;;;;;;31.83;17.38;;;7.50;99.90;;;;;;5071955;28;20044;-47
2023/12/19 03:42:48;;;;;;;30.45;15.65;;;8.10;99.90;;;;;;5071591;28;20549;-45
2023/12/19 03:45:14;;;;;;;29.15;16.17;;;7.70;99.90;;;;;;5071908;28;20134;-45
2023/12/19 03:47:40;;;;;;;30.10;16.23;;;7.10;99.90;;;;;;5071869;28;20076;-45
2023/12/19 03:50:07;;;;;;;28.50;15.93;;;7.40;99.90;;;;;;5071848;28;20395;-44
2023/12/19 03:52:33;;;;;;;31.77;17.00;;;8.10;99.90;;;;;;5071440;28;20040;-48
2023/12/19 03:54:58;;;;;;;29.63;16.65;;;8.00;99.90;;;;;;5071526;28;20044;-46
2023/12/19 03:57:25;;;;;;;29.38;15.23;;;7.70;99.90;;;;;;5071659;28;20048;-44
2023/12/19 03:59:51;;;;;;;28.83;15.27;;;7.30;99.90;;;;;;5070597;28;20481;-44
2023/12/19 04:02:17;;;;;;;26.88;14.93;;;8.10;99.90;;;;;;5071731;28;20094;-44
2023/12/19 04:04:42;;;;;;;26.45;14.80;;;7.70;99.90;;;;;;5071455;28;20395;-45
2023/12/19 04:07:08;;;;;;;27.80;14.52;;;7.80;99.90;;;;;;5071668;28;20094;-45
2023/12/19 04:09:34;;;;;;;26.92;14.52;;;7.10;99.90;;;;;;5071406;28;20086;-44
2023/12/19 04:12:03;;;;;;;27.05;14.20;;;7.10;99.90;;;;;;5070467;28;20045;-45
2023/12/19 04:14:33;;;;;;;22.98;13.00;;;7.40;99.90;;;;;;5071220;28;20055;-45
2023/12/19 04:16:59;;;;;;;24.73;12.95;;;8.10;99.90;;;;;;5074416;28;20048;-48
2023/12/19 04:19:25;;;;;;;22.13;11.63;;;8.10;99.90;;;;;;5075106;28;20040;-48
2023/12/19 04:21:51;;;;;;;21.13;11.50;;;7.50;99.90;;;;;;5074841;28;20452;-47
2023/12/19 04:24:20;;;;;;;22.88;11.27;;;7.00;99.90;;;;;;5075178;28;20051;-44
2023/12/19 04:26:49;;;;;;;21.02;11.10;;;7.00;99.90;;;;;;5074998;28;20028;-48
2023/12/19 04:29:15;;;;;;;21.77;11.15;;;7.00;99.90;;;;;;5074989;28;20138;-45
2023/12/19 04:31:41;;;;;;;20.38;10.10;;;7.00;99.90;;;;;;5074956;28;20032;-45
2023/12/19 04:34:07;;;;;;;18.50;10.77;;;8.10;99.90;;;;;;5074610;28;20493;-47
2023/12/19 04:36:33;;;;;;;20.33;10.40;;;7.10;99.90;;;;;;5074703;28;20049;-50
2023/12/19 04:38:59;;;;;;;19.33;9.68;;;7.60;99.90;;;;;;5074827;28;20431;-47
2023/12/19 04:41:24;;;;;;;17.75;10.20;;;7.90;99.90;;;;;;5074464;28;20048;-44
2023/12/19 04:43:51;;;;;;;18.58;9.20;;;7.10;99.90;;;;;;5074483;28;20630;-46
2023/12/19 04:46:17;;;;;;;17.42;9.13;;;8.10;99.90;;;;;;5073402;28;20052;-46
2023/12/19 04:48:43;;;;;;;17.35;10.23;;;8.00;99.90;;;;;;5074657;28;20477;-47
2023/12/19 04:51:19;;;;;;;16.80;9.60;;;7.20;99.90;;;;;;5074572;28;20041;-46
2023/12/19 04:53:46;;;;;;;15.32;9.05;;;8.10;99.90;;;;;;5074490;28;20064;-47
2023/12/19 04:56:13;;;;;;;16.83;8.95;;;7.10;99.90;;;;;;5074248;28;20097;-45
2023/12/19 04:58:39;;;;;;;16.88;8.60;;;8.10;99.90;;;;;;5074147;28;20048;-43
2023/12/19 05:01:05;;;;;;;18.00;9.38;;;8.10;99.90;;;;;;5073997;28;20051;-43
2023/12/19 05:03:31;;;;;;;20.65;9.15;;;8.20;99.90;;;;;;5074040;28;20393;-44
2023/12/19 05:05:56;;;;;;;16.95;9.07;;;7.60;99.90;;;;;;5074184;28;20503;-44
2023/12/19 05:08:22;;;;;;;16.95;8.77;;;8.20;99.90;;;;;;5074208;28;20503;-44
2023/12/19 05:10:48;;;;;;;16.77;9.23;;;7.20;99.90;;;;;;5074154;28;20431;-44
2023/12/19 05:13:13;;;;;;;18.70;9.43;;;8.20;99.90;;;;;;5074145;28;20098;-44
2023/12/19 05:15:39;;;;;;;14.50;8.13;;;7.50;99.90;;;;;;5073981;28;20079;-44
2023/12/19 05:18:05;;;;;;;15.60;8.65;;;7.70;99.90;;;;;;5073966;28;20393;-45
2023/12/19 05:20:30;;;;;;;16.75;8.65;;;8.20;99.90;;;;;;5039342;28;20044;-48
2023/12/19 05:22:56;;;;;;;14.65;8.18;;;7.10;99.90;;;;;;5073975;28;20566;-45
2023/12/19 05:25:21;;;;;;;15.35;7.25;;;7.30;99.90;;;;;;5072721;28;20384;-44
2023/12/19 05:27:47;;;;;;;15.10;8.60;;;7.70;99.90;;;;;;5072572;28;20457;-45
2023/12/19 05:30:13;;;;;;;15.20;7.68;;;8.20;99.90;;;;;;5073721;28;20050;-46
2023/12/19 05:32:39;;;;;;;14.00;7.32;;;7.20;99.90;;;;;;5073598;28;20048;-45
2023/12/19 05:35:05;;;;;;;12.40;7.30;;;7.20;99.90;;;;;;5073800;28;20119;-44
2023/12/19 05:37:31;;;;;;;13.88;7.18;;;8.20;99.90;;;;;;5073743;28;20080;-45
2023/12/19 05:39:57;;;;;;;13.98;7.45;;;8.20;99.90;;;;;;5073457;28;20133;-44
2023/12/19 05:42:23;;;;;;;13.32;7.50;;;8.20;99.90;;;;;;5072047;28;20053;-47
2023/12/19 05:44:49;;;;;;;15.77;8.30;;;8.20;99.90;;;;;;5073432;28;20393;-48
2023/12/19 05:47:15;;;;;;;14.27;7.18;;;8.30;99.90;;;;;;5073270;28;20040;-46
2023/12/19 05:49:41;;;;;;;13.73;7.70;;;7.20;99.90;;;;;;5073280;28;20043;-46
2023/12/19 05:52:07;;;;;;;14.63;7.45;;;7.10;99.90;;;;;;5073556;28;20040;-45
2023/12/19 05:54:33;;;;;;;14.70;7.85;;;8.30;99.90;;;;;;5072075;28;20055;-45
2023/12/19 05:56:59;;;;;;;14.75;7.63;;;8.00;99.90;;;;;;5073366;28;20059;-53
2023/12/19 05:59:24;;;;;;;13.95;7.55;;;7.90;99.90;;;;;;5073460;28;20040;-45
2023/12/19 06:01:50;;;;;;;15.13;7.97;;;7.20;99.90;;;;;;5072936;28;20041;-44
2023/12/19 06:04:16;;;;;;;13.85;7.22;;;8.40;99.90;;;;;;5073054;28;20109;-46
2023/12/19 06:06:44;;;;;;;14.32;7.32;;;8.00;99.90;;;;;;5073174;28;20036;-49
2023/12/19 06:09:13;;;;;;;14.93;7.53;;;7.20;99.90;;;;;;5072880;28;20124;-49
2023/12/19 06:11:39;;;;;;;14.23;7.45;;;7.30;99.90;;;;;;5073051;28;20044;-49
2023/12/19 06:14:08;;;;;;;13.93;7.97;;;7.20;99.90;;;;;;5071565;28;20115;-48
2023/12/19 06:16:34;;;;;;;13.30;7.38;;;7.30;99.90;;;;;;5072770;28;20055;-48
2023/12/19 06:19:00;;;;;;;13.52;7.45;;;7.60;99.90;;;;;;5072889;28;20033;-47
2023/12/19 06:21:25;;;;;;;14.27;7.57;;;7.50;99.90;;;;;;5072615;28;20420;-45
2023/12/19 06:23:51;;;;;;;14.35;7.35;;;8.50;99.90;;;;;;5072524;28;20193;-47
2023/12/19 06:26:17;;;;;;;13.15;6.93;;;7.40;99.90;;;;;;5072458;28;20056;-44
2023/12/19 06:28:43;;;;;;;16.52;8.65;;;8.10;99.90;;;;;;5072496;28;20048;-46
2023/12/19 06:31:08;;;;;;;15.88;7.68;;;7.20;99.90;;;;;;5072384;28;20119;-47
2023/12/19 06:33:36;;;;;;;14.40;8.00;;;7.30;99.90;;;;;;5071039;28;20052;-44
2023/12/19 06:36:02;;;;;;;14.00;7.57;;;7.20;99.90;;;;;;5072380;28;20097;-49
2023/12/19 06:38:29;;;;;;;14.80;8.10;;;7.30;99.90;;;;;;5072316;28;20054;-46
2023/12/19 06:40:54;;;;;;;15.73;7.35;;;7.50;99.90;;;;;;5072299;28;20045;-46
2023/12/19 06:43:20;;;;;;;16.00;8.52;;;7.30;99.90;;;;;;5072018;28;20053;-46
2023/12/19 06:45:46;;;;;;;16.40;9.05;;;7.40;99.90;;;;;;5072158;28;20033;-48
2023/12/19 06:48:11;;;;;;;15.88;8.32;;;7.30;99.90;;;;;;5072428;28;20090;-49
2023/12/19 06:50:39;;;;;;;15.73;8.88;;;8.20;99.90;;;;;;5072424;28;20399;-46
2023/12/19 06:53:05;;;;;;;16.65;8.70;;;8.50;99.90;;;;;;5072298;28;20054;-44
2023/12/19 06:55:30;;;;;;;16.48;8.73;;;8.50;99.90;;;;;;5072130;28;20115;-44
2023/12/19 06:57:57;;;;;;;19.05;9.45;;;7.40;99.90;;;;;;5072033;28;20041;-47
2023/12/19 07:00:22;;;;;;;16.45;9.35;;;7.30;99.90;;;;;;5072272;28;20392;-44
2023/12/19 07:02:48;;;;;;;16.83;8.95;;;7.60;99.90;;;;;;5072214;28;20040;-47
2023/12/19 07:05:14;;;;;;;17.13;8.68;;;7.30;99.90;;;;;;5072134;28;20051;-46
2023/12/19 07:07:39;;;;;;;17.15;10.10;;;8.60;99.90;;;;;;5072104;28;20036;-48
2023/12/19 07:10:06;;;;;;;17.98;9.20;;;8.50;99.90;;;;;;5072271;28;20473;-49
2023/12/19 07:12:31;;;;;;;16.13;9.20;;;8.50;99.90;;;;;;5071821;28;20384;-45
2023/12/19 07:14:57;;;;;;;16.60;9.35;;;7.40;99.90;;;;;;5072133;28;20044;-45
2023/12/19 07:17:23;;;;;;;19.35;9.63;;;7.30;99.90;;;;;;5072122;28;20091;-47
2023/12/19 07:19:49;;;;;;;19.95;9.30;;;7.60;99.90;;;;;;5071898;28;20049;-49
2023/12/19 07:22:15;;;;;;;18.45;9.13;;;8.00;99.90;;;;;;5071732;28;20099;-46
2023/12/19 07:24:40;;;;;;;18.35;9.07;;;7.40;99.90;;;;;;5071679;28;20044;-44
2023/12/19 07:27:06;;;;;;;19.40;9.70;;;8.20;99.90;;;;;;5071427;28;20040;-44
2023/12/19 07:29:32;;;;;;;17.67;9.23;;;8.50;99.90;;;;;;5071427;28;20036;-45
2023/12/19 07:32:01;;;;;;;14.02;7.32;;;8.50;99.90;;;;;;5071928;28;20076;-44
2023/12/19 07:34:27;;;;;;;14.73;6.82;;;7.50;99.90;;;;;;5071844;28;20044;-44
2023/12/19 07:36:52;;;;;;;16.02;6.88;;;7.50;99.90;;;;;;5071858;28;20399;-46
2023/12/19 07:39:18;;;;;;;14.02;6.60;;;8.70;99.90;;;;;;5070440;28;20071;-45
2023/12/19 07:41:43;;;;;;;14.55;6.90;;;8.20;99.90;;;;;;5071645;28;20057;-49
2023/12/19 07:44:09;;;;;;;13.60;6.68;;;8.20;99.90;;;;;;5070623;28;20091;-47
2023/12/19 07:46:44;;;;;;;15.32;7.20;;;7.30;99.90;;;;;;5071571;28;20303;-44
2023/12/19 07:49:10;;;;;;;12.93;6.22;;;7.80;99.90;;;;;;5071898;28;20037;-45
2023/12/19 07:51:36;;;;;;;13.60;6.72;;;8.60;99.90;;;;;;5074007;28;20044;-48
2023/12/19 07:54:02;;;;;;;13.70;7.22;;;7.50;99.90;;;;;;5075490;28;20123;-46
2023/12/19 07:56:27;;;;;;;12.93;6.65;;;8.70;99.90;;;;;;5075363;28;20044;-47
2023/12/19 07:58:53;;;;;;;12.80;5.93;;;7.80;99.90;;;;;;5075409;28;20111;-47
2023/12/19 08:01:19;;;;;;;11.10;5.93;;;7.60;99.90;;;;;;5075405;28;20037;-46
2023/12/19 08:03:45;;;;;;;12.45;6.43;;;8.60;99.90;;;;;;5075178;28;20416;-44
2023/12/19 08:06:12;;;;;;;11.43;5.75;;;8.40;99.90;;;;;;5075240;28;20036;-46
2023/12/19 08:08:38;;;;;;;11.93;5.90;;;7.90;99.90;;;;;;5075174;28;20056;-48
2023/12/19 08:11:05;;;;;;;11.43;5.50;;;8.70;99.90;;;;;;5075403;28;20032;-47
2023/12/19 08:13:31;;;;;;;11.02;5.50;;;7.50;99.90;;;;;;5075377;28;20055;-47
2023/12/19 08:15:57;;;;;;;12.45;5.82;;;7.80;99.90;;;;;;5075246;28;20069;-45
2023/12/19 08:18:23;;;;;;;12.63;6.15;;;7.60;99.90;;;;;;5074938;28;20041;-45
2023/12/19 08:20:49;;;;;;;12.75;6.25;;;8.40;99.90;;;;;;5075108;28;20040;-43
2023/12/19 08:23:14;;;;;;;10.07;4.80;;;8.20;99.90;;;;;;5074690;28;20669;-49
2023/12/19 08:25:41;;;;;;;11.80;4.70;;;7.60;99.90;;;;;;5073781;28;20123;-47
2023/12/19 08:28:10;;;;;;;11.23;4.97;;;8.70;99.90;;;;;;5074687;28;20048;-45
2023/12/19 08:30:36;;;;;;;9.40;4.45;;;7.80;99.90;;;;;;5073362;28;20036;-47
2023/12/19 08:33:02;;;;;;;10.98;5.00;;;7.60;99.90;;;;;;5074773;28;20093;-48
2023/12/19 08:35:29;;;;;;;10.68;4.75;;;7.90;99.90;;;;;;5074711;28;20043;-45
2023/12/19 08:37:55;;;;;;;10.32;5.85;;;8.80;99.90;;;;;;5074563;28;20055;-49
2023/12/19 08:40:21;;;;;;;10.75;5.68;;;8.70;99.90;;;;;;5074861;28;20390;-46
2023/12/19 08:42:50;;;;;;;10.38;5.18;;;7.70;99.90;;;;;;5074308;28;20048;-46
2023/12/19 08:45:17;;;;;;;11.65;5.40;;;8.50;99.90;;;;;;5074672;28;20036;-44
2023/12/19 08:47:44;;;;;;;10.60;5.38;;;8.80;99.90;;;;;;5073424;28;20043;-48
2023/12/19 08:50:11;;;;;;;10.25;5.05;;;7.70;99.90;;;;;;5073281;28;20131;-44
2023/12/19 08:52:37;;;;;;;11.50;6.13;;;7.90;99.90;;;;;;5074391;28;20089;-47
2023/12/19 08:55:07;;;;;;;12.90;6.22;;;8.80;99.90;;;;;;5074598;28;20119;-47
2023/12/19 08:57:43;;;;;;;13.23;6.25;;;8.00;99.90;;;;;;5074218;28;20485;-45
2023/12/19 09:00:13;;;;;;;13.48;6.55;;;8.80;99.90;;;;;;5074267;28;20051;-45
2023/12/19 09:02:42;;;;;;;14.20;7.10;;;8.90;99.90;;;;;;5074002;28;20404;-44
2023/12/19 09:05:15;;;;;;;12.75;7.25;;;8.80;99.90;;;;;;5074031;28;20072;-45
2023/12/19 09:07:42;;;;;;;14.15;7.18;;;8.90;99.90;;;;;;5074524;28;20449;-44
2023/12/19 09:10:08;;;;;;;12.25;6.45;;;8.80;99.90;;;;;;5074399;28;20127;-45
2023/12/19 09:12:34;;;;;;;14.43;7.22;;;8.90;99.90;;;;;;5074025;28;20477;-45
2023/12/19 09:15:02;;;;;;;13.32;7.15;;;8.10;99.90;;;;;;5074087;28;20186;-49
2023/12/19 09:17:28;;;;;;;13.05;7.28;;;8.90;99.90;;;;;;5074121;28;20040;-45
2023/12/19 09:19:55;;;;;;;15.27;8.35;;;8.60;99.90;;;;;;5074068;28;20126;-46
2023/12/19 09:22:20;;;;;;;13.90;7.60;;;8.10;99.90;;;;;;5073722;28;20063;-45
2023/12/19 09:24:46;;;;;;;15.57;8.15;;;8.00;99.90;;;;;;5073912;28;20037;-45
2023/12/19 09:27:12;;;;;;;16.52;8.68;;;7.90;99.90;;;;;;5073945;28;20032;-45
2023/12/19 09:29:38;;;;;;;16.00;8.50;;;9.10;99.90;;;;;;5073645;28;20047;-44
2023/12/19 09:32:05;;;;;;;15.98;8.18;;;8.10;99.90;;;;;;5073808;28;20037;-45
2023/12/19 09:34:31;;;;;;;16.15;8.50;;;7.90;99.90;;;;;;5073880;28;20045;-44
2023/12/19 09:36:57;;;;;;;16.65;8.43;;;8.00;99.90;;;;;;5073728;28;20378;-44
2023/12/19 09:39:23;;;;;;;15.95;7.90;;;7.90;99.90;;;;;;5073898;28;20058;-44
2023/12/19 09:41:49;;;;;;;16.77;8.10;;;8.10;99.90;;;;;;5073270;28;20139;-45
2023/12/19 09:44:15;;;;;;;16.23;7.88;;;8.80;99.90;;;;;;5073427;28;20519;-44
2023/12/19 09:46:49;;;;;;;13.73;7.68;;;9.10;99.90;;;;;;5072072;28;20040;-46
2023/12/19 09:49:20;;;;;;;15.43;7.28;;;9.10;99.90;;;;;;5073630;28;20044;-46
2023/12/19 09:51:49;;;;;;;13.98;7.13;;;8.30;99.90;;;;;;5073291;28;20147;-46
2023/12/19 09:54:14;;;;;;;15.60;8.27;;;9.30;99.90;;;;;;5071894;28;20044;-57
2023/12/19 09:56:40;;;;;;;15.55;7.70;;;8.80;99.90;;;;;;5072966;28;20369;-46
2023/12/19 09:59:07;;;;;;;16.23;7.60;;;8.50;99.90;;;;;;5072996;28;20074;-44
2023/12/19 10:01:33;;;;;;;15.40;7.90;;;8.20;99.90;;;;;;5071543;28;20489;-46
2023/12/19 10:03:59;;;;;;;13.20;6.40;;;8.10;99.90;;;;;;5073242;28;20067;-45
2023/12/19 10:06:25;;;;;;;12.68;7.10;;;9.10;99.90;;;;;;5073294;28;20048;-44
2023/12/19 10:08:54;;;;;;;13.85;7.03;;;8.80;99.90;;;;;;5073050;28;20037;-45
2023/12/19 10:11:24;;;;;;;12.63;6.55;;;9.30;99.90;;;;;;5073159;28;20693;-47
2023/12/19 10:13:50;;;;;;;12.88;6.85;;;8.20;99.90;;;;;;5072263;28;20040;-46
2023/12/19 10:16:19;;;;;;;12.30;6.60;;;9.20;99.90;;;;;;5071484;28;20032;-44
2023/12/19 10:18:53;;;;;;;12.68;6.32;;;8.80;99.90;;;;;;5072658;28;20036;-44
2023/12/19 10:21:21;;;;;;;12.52;6.32;;;8.30;99.90;;;;;;5072882;28;20357;-44
2023/12/19 10:23:47;;;;;;;12.45;6.22;;;9.10;99.90;;;;;;5072581;28;20053;-45
2023/12/19 10:26:12;;;;;;;15.30;6.03;;;8.60;99.90;;;;;;5072437;28;20435;-45
2023/12/19 10:28:38;;;;;;;12.32;6.35;;;9.50;99.90;;;;;;5072775;28;20041;-45
2023/12/19 10:31:15;;;;;;;12.32;5.90;;;8.90;99.90;;;;;;5072665;28;20075;-45
2023/12/19 10:33:45;;;;;;;13.15;6.68;;;9.50;99.90;;;;;;5072509;28;20535;-45
2023/12/19 10:36:24;;;;;;;11.65;5.68;;;9.20;99.90;;;;;;5072548;28;20052;-46
2023/12/19 10:38:51;;;;;;;12.77;6.38;;;8.70;99.90;;;;;;5072710;28;20052;-45
2023/12/19 10:41:30;;;;;;;12.48;5.60;;;9.40;99.90;;;;;;5072415;28;20051;-44
2023/12/19 10:44:00;;;;;;;13.63;6.60;;;9.20;99.90;;;;;;5072676;28;20098;-46
2023/12/19 10:46:28;;;;;;;14.38;6.38;;;9.50;99.90;;;;;;5072193;28;20032;-45
2023/12/19 10:48:56;;;;;;;15.02;6.35;;;9.20;99.90;;;;;;5072527;28;20403;-44
2023/12/19 10:51:56;;;;;;;12.95;6.10;;;8.40;99.90;;;;;;5072071;28;20108;-46
2023/12/19 10:54:24;;;;;;;14.63;6.72;;;8.30;99.90;;;;;;5068099;28;20124;-45
2023/12/19 10:56:54;;;;;;;14.23;5.50;;;8.50;99.90;;;;;;5072333;28;20070;-44
2023/12/19 10:59:30;;;;;;;13.73;6.07;;;9.50;99.90;;;;;;5072252;28;20123;-44
2023/12/19 11:02:13;;;;;;;14.43;6.05;;;9.30;99.90;;;;;;5072009;28;20036;-45
2023/12/19 11:04:42;;;;;;;14.65;6.45;;;8.50;99.90;;;;;;5072248;28;20076;-47
2023/12/19 11:07:12;;;;;;;13.85;6.10;;;9.70;99.90;;;;;;5072180;28;20447;-45
2023/12/19 11:09:40;;;;;;;13.15;6.30;;;8.60;99.90;;;;;;5072125;28;20127;-45
2023/12/19 11:12:07;;;;;;;13.77;5.82;;;8.80;99.90;;;;;;5072299;28;20082;-45
2023/12/19 11:14:33;;;;;;;15.85;6.75;;;8.70;99.90;;;;;;5071913;28;20040;-47
2023/12/19 11:17:28;;;;;;;15.73;6.75;;;8.90;99.90;;;;;;5071895;28;20051;-45
2023/12/19 11:20:20;;;;;;;13.02;5.82;;;9.10;99.90;;;;;;5072069;28;20082;-45
2023/12/19 11:22:51;;;;;;;12.75;5.93;;;9.60;99.90;;;;;;5071717;28;20448;-45
2023/12/19 11:25:31;;;;;;;16.67;5.70;;;9.90;99.90;;;;;;5071129;28;20403;-48
2023/12/19 11:28:03;;;;;;;14.63;6.38;;;9.90;99.90;;;;;;5076053;28;20044;-49
2023/12/19 11:30:40;;;;;;;16.55;6.47;;;9.80;99.90;;;;;;5075952;28;20036;-44
2023/12/19 11:33:07;;;;;;;12.82;5.65;;;8.50;99.90;;;;;;5076127;28;20040;-44
2023/12/19 11:35:34;;;;;;;14.50;6.13;;;9.70;99.90;;;;;;5074538;28;20044;-50
2023/12/19 11:38:14;;;;;;;13.80;6.07;;;8.50;99.90;;;;;;5075777;28;20778;-48
2023/12/19 11:40:49;;;;;;;12.60;6.43;;;9.50;99.90;;;;;;5076015;28;20040;-49
2023/12/19 11:43:36;;;;;;;14.40;6.65;;;8.70;99.90;;;;;;5075456;28;20122;-45
2023/12/19 11:46:08;;;;;;;14.57;7.28;;;10.10;99.90;;;;;;5071947;28;20048;-47
2023/12/19 11:48:37;;;;;;;14.77;6.28;;;8.60;99.90;;;;;;5075862;28;20044;-49
2023/12/19 11:51:12;;;;;;;12.95;6.70;;;9.90;99.90;;;;;;5075709;28;20370;-48
2023/12/19 11:53:39;;;;;;;15.48;6.85;;;9.00;99.90;;;;;;5075541;28;20051;-48
2023/12/19 11:56:10;;;;;;;13.95;6.57;;;10.10;99.90;;;;;;5075447;28;20040;-47
2023/12/19 11:58:44;;;;;;;13.70;6.53;;;8.70;99.90;;;;;;5075643;28;20389;-45
2023/12/19 12:01:09;;;;;;;12.55;6.10;;;9.20;99.90;;;;;;5075504;28;20102;-48
2023/12/19 12:03:37;;;;;;;13.98;7.25;;;8.90;99.90;;;;;;5075300;28;20044;-46
2023/12/19 12:06:04;;;;;;;12.90;6.47;;;8.70;99.90;;;;;;5075322;28;20546;-45
2023/12/19 12:08:30;;;;;;;12.75;6.38;;;8.90;99.90;;;;;;5075161;28;20041;-45
2023/12/19 12:11:02;;;;;;;12.82;6.88;;;9.40;99.90;;;;;;5075459;28;20046;-48
2023/12/19 12:13:29;;;;;;;13.57;7.13;;;8.60;99.90;;;;;;5075241;28;20044;-46
2023/12/19 12:15:56;;;;;;;12.90;6.72;;;9.20;99.90;;;;;;5075358;28;20040;-48
2023/12/19 12:18:21;;;;;;;13.18;7.05;;;10.00;99.90;;;;;;5075039;28;20040;-45
2023/12/19 12:20:47;;;;;;;11.55;5.85;;;9.80;99.90;;;;;;5074820;28;20337;-46
2023/12/19 12:23:18;;;;;;;13.27;6.53;;;8.70;99.90;;;;;;5074993;28;20511;-43
2023/12/19 12:25:44;;;;;;;14.98;6.60;;;9.90;99.90;;;;;;5075028;28;20032;-44
2023/12/19 12:28:11;;;;;;;12.25;6.03;;;9.40;99.90;;;;;;5074769;28;20036;-44
2023/12/19 12:30:38;;;;;;;12.48;6.20;;;9.90;99.90;;;;;;5074806;28;20044;-44
2023/12/19 12:33:04;;;;;;;12.00;6.18;;;9.80;99.90;;;;;;5074925;28;20313;-44
2023/12/19 12:35:35;;;;;;;9.82;4.80;;;8.90;99.90;;;;;;5074921;28;20055;-44
2023/12/19 12:38:10;;;;;;;9.25;4.90;;;10.10;99.90;;;;;;5074193;28;20504;-44
2023/12/19 12:40:36;;;;;;;11.50;4.95;;;10.00;99.90;;;;;;5074917;28;20155;-44
2023/12/19 12:43:24;;;;;;;11.00;5.15;;;8.80;99.90;;;;;;5074376;28;20149;-44